Time;durP1;ratioP1;P1;durP2;ratioP2;P2;SDS_P1;SDS_P2;PMS_P1;PMS_P2;Temp;Humidity;BMP_temperature;BMP_pressure;BME280_temperature;BME280_humidity;BME280_pressure;Samples;Min_cycle;Max_cycle;Signal;HPM_P1;HPM_P2
2023/07/19 00:02:40;;;;;;;11.32;5.13;;;26.30;55.20;;;;;;6170853;27;85280;-60
2023/07/19 00:05:41;;;;;;;10.27;5.55;;;26.20;55.00;;;;;;6172259;27;81083;-58
2023/07/19 00:08:41;;;;;;;7.25;4.15;;;26.30;55.10;;;;;;6173857;27;80460;-57
2023/07/19 00:11:42;;;;;;;6.85;4.50;;;26.20;54.90;;;;;;6174184;27;80284;-58
2023/07/19 00:14:43;;;;;;;7.93;4.32;;;26.20;55.00;;;;;;6163994;27;81035;-57
2023/07/19 00:17:44;;;;;;;10.32;5.07;;;26.20;54.80;;;;;;6165131;27;80750;-57
2023/07/19 00:20:44;;;;;;;12.02;4.97;;;26.20;54.90;;;;;;6178252;27;79978;-57
2023/07/19 00:23:45;;;;;;;8.25;4.38;;;26.30;55.10;;;;;;6154840;27;81807;-57
2023/07/19 00:26:45;;;;;;;6.95;4.47;;;26.20;55.10;;;;;;6163808;27;80247;-59
2023/07/19 00:29:46;;;;;;;6.57;4.45;;;26.30;55.20;;;;;;6149621;27;82586;-58
2023/07/19 00:32:46;;;;;;;7.68;4.97;;;26.20;55.40;;;;;;6163705;27;80268;-59
2023/07/19 00:35:47;;;;;;;8.52;4.88;;;26.20;55.40;;;;;;6164546;27;82008;-58
2023/07/19 00:38:47;;;;;;;7.60;5.20;;;26.20;55.50;;;;;;6151801;27;81320;-58
2023/07/19 00:41:48;;;;;;;10.23;4.78;;;26.20;55.70;;;;;;6158108;27;81680;-57
2023/07/19 00:44:49;;;;;;;13.73;5.78;;;26.20;55.70;;;;;;6161712;27;81667;-58
2023/07/19 00:47:50;;;;;;;8.07;4.75;;;26.20;55.80;;;;;;6162417;27;81105;-58
2023/07/19 00:50:50;;;;;;;7.70;5.22;;;26.20;55.70;;;;;;6177338;27;81465;-57
2023/07/19 00:53:51;;;;;;;11.45;5.18;;;26.20;55.70;;;;;;6151746;27;80430;-58
2023/07/19 00:56:51;;;;;;;8.55;5.00;;;26.20;55.80;;;;;;6177696;27;81857;-57
2023/07/19 00:59:52;;;;;;;9.80;4.75;;;26.20;55.90;;;;;;6146079;27;81944;-57
2023/07/19 01:02:52;;;;;;;12.63;5.53;;;26.20;56.00;;;;;;6157045;27;81546;-56
2023/07/19 01:05:53;;;;;;;14.25;5.47;;;26.10;56.00;;;;;;6170346;27;83847;-58
2023/07/19 01:08:53;;;;;;;8.82;5.65;;;26.10;56.10;;;;;;6184746;27;82264;-58
2023/07/19 01:11:54;;;;;;;11.10;5.38;;;26.00;56.30;;;;;;6185533;27;81035;-58
2023/07/19 01:14:54;;;;;;;9.15;5.07;;;26.00;56.70;;;;;;6172213;27;80841;-57
2023/07/19 01:17:55;;;;;;;11.98;5.30;;;26.00;56.60;;;;;;6161680;27;80895;-55
2023/07/19 01:20:55;;;;;;;8.90;5.43;;;26.00;56.60;;;;;;6150978;27;81488;-57
2023/07/19 01:23:56;;;;;;;9.65;4.63;;;26.00;56.60;;;;;;6171997;27;83570;-58
2023/07/19 01:26:56;;;;;;;11.45;4.88;;;26.00;56.70;;;;;;6180760;27;80864;-60
2023/07/19 01:29:57;;;;;;;14.40;5.20;;;26.00;56.70;;;;;;6181947;27;82281;-58
2023/07/19 01:32:57;;;;;;;6.43;4.65;;;26.00;56.80;;;;;;6175228;27;81148;-58
2023/07/19 01:35:58;;;;;;;14.73;5.40;;;26.00;56.80;;;;;;6176406;27;81709;-57
2023/07/19 01:39:01;;;;;;;6.82;4.35;;;26.00;56.80;;;;;;6163104;27;81793;-58
2023/07/19 01:42:02;;;;;;;6.82;4.85;;;25.90;56.80;;;;;;6157341;27;84011;-57
2023/07/19 01:45:02;;;;;;;7.53;4.80;;;26.00;57.00;;;;;;6173292;27;81384;-56
2023/07/19 01:48:03;;;;;;;9.25;4.65;;;25.90;57.00;;;;;;6172748;27;81445;-57
2023/07/19 01:51:05;;;;;;;9.05;5.00;;;26.00;57.00;;;;;;6175979;27;80752;-58
2023/07/19 01:54:07;;;;;;;8.80;4.25;;;26.00;56.90;;;;;;6159378;27;81352;-57
2023/07/19 01:57:07;;;;;;;7.25;5.10;;;26.00;57.00;;;;;;6151963;28;83281;-58
2023/07/19 02:00:08;;;;;;;7.82;4.30;;;26.00;56.90;;;;;;6155759;27;82801;-57
2023/07/19 02:03:18;;;;;;;6.35;4.75;;;26.00;56.80;;;;;;6160053;27;80894;-59
2023/07/19 02:06:18;;;;;;;8.65;4.57;;;25.90;56.70;;;;;;6165773;27;84377;-58
2023/07/19 02:09:19;;;;;;;7.38;4.40;;;26.00;56.80;;;;;;6168796;27;80473;-59
2023/07/19 02:12:19;;;;;;;6.55;4.45;;;26.00;56.90;;;;;;6166957;27;83369;-58
2023/07/19 02:15:20;;;;;;;6.90;4.18;;;26.00;56.70;;;;;;6169704;27;83451;-56
2023/07/19 02:18:21;;;;;;;8.77;5.38;;;25.90;56.70;;;;;;6169658;27;80686;-54
2023/07/19 02:21:22;;;;;;;7.28;4.68;;;25.90;56.60;;;;;;6167887;27;81388;-59
2023/07/19 02:24:22;;;;;;;7.68;4.68;;;25.90;56.60;;;;;;6168757;27;80972;-69
2023/07/19 02:27:23;;;;;;;9.10;4.10;;;25.90;56.60;;;;;;6178940;27;83540;-71
2023/07/19 02:30:23;;;;;;;6.53;4.20;;;25.90;56.60;;;;;;6170400;27;80076;-67
2023/07/19 02:33:24;;;;;;;10.32;4.78;;;25.90;56.70;;;;;;6167422;27;83304;-68
2023/07/19 02:36:24;;;;;;;6.82;4.43;;;25.90;56.70;;;;;;6168000;27;82026;-67
2023/07/19 02:39:27;;;;;;;7.05;3.97;;;25.90;56.80;;;;;;6170156;27;83946;-67
2023/07/19 02:42:28;;;;;;;8.48;4.25;;;25.90;56.80;;;;;;6172764;27;83225;-61
2023/07/19 02:45:28;;;;;;;7.05;4.00;;;25.90;56.80;;;;;;6158027;27;80399;-61
2023/07/19 02:48:29;;;;;;;9.68;4.78;;;25.90;56.90;;;;;;6152243;27;80359;-61
2023/07/19 02:51:29;;;;;;;8.70;4.30;;;25.90;56.90;;;;;;6163416;27;80158;-62
2023/07/19 02:54:30;;;;;;;11.18;5.13;;;25.90;56.90;;;;;;6178976;27;82260;-62
2023/07/19 02:57:31;;;;;;;6.82;4.10;;;25.90;56.90;;;;;;6157416;27;80460;-63
2023/07/19 03:00:31;;;;;;;7.47;4.03;;;25.90;56.90;;;;;;6152046;27;80604;-66
2023/07/19 03:03:32;;;;;;;12.60;4.68;;;25.90;57.10;;;;;;6164698;27;81064;-66
2023/07/19 03:06:32;;;;;;;10.35;4.45;;;25.90;57.10;;;;;;6160484;27;83510;-67
2023/07/19 03:09:33;;;;;;;8.82;4.22;;;25.90;57.10;;;;;;6185899;27;80367;-65
2023/07/19 03:12:33;;;;;;;8.10;4.20;;;25.80;57.30;;;;;;6181251;27;80546;-66
2023/07/19 03:15:34;;;;;;;8.48;4.68;;;25.80;58.00;;;;;;6185747;27;80292;-66
2023/07/19 03:18:34;;;;;;;7.07;4.28;;;25.80;57.50;;;;;;6184297;27;83372;-58
2023/07/19 03:21:36;;;;;;;8.77;4.78;;;25.80;57.40;;;;;;6169453;27;80183;-57
2023/07/19 03:24:37;;;;;;;11.95;4.78;;;25.70;57.40;;;;;;6158832;27;80413;-58
2023/07/19 03:27:38;;;;;;;8.88;4.05;;;25.70;57.50;;;;;;6162941;27;80157;-57
2023/07/19 03:30:38;;;;;;;11.48;4.30;;;25.80;57.60;;;;;;6145603;27;83208;-58
2023/07/19 03:33:39;;;;;;;7.72;4.75;;;25.80;57.70;;;;;;6156566;27;83733;-56
2023/07/19 03:36:39;;;;;;;10.27;4.47;;;25.80;57.70;;;;;;6156215;27;83104;-56
2023/07/19 03:39:40;;;;;;;9.57;3.78;;;25.80;57.50;;;;;;6159814;27;80717;-57
2023/07/19 03:42:41;;;;;;;7.07;4.30;;;25.80;57.40;;;;;;6163543;27;83028;-56
2023/07/19 03:45:41;;;;;;;11.32;4.35;;;25.80;57.50;;;;;;6169448;27;81009;-56
2023/07/19 03:48:42;;;;;;;7.32;4.10;;;25.80;57.40;;;;;;6170759;27;83747;-60
2023/07/19 03:51:43;;;;;;;7.18;4.13;;;25.80;57.40;;;;;;6169730;27;83256;-58
2023/07/19 03:54:45;;;;;;;8.68;4.55;;;25.80;57.40;;;;;;6162695;27;81012;-58
2023/07/19 03:57:47;;;;;;;7.63;4.35;;;25.80;57.30;;;;;;6158763;27;83329;-68
2023/07/19 04:00:48;;;;;;;9.52;4.78;;;25.80;57.20;;;;;;6164676;27;82996;-68
2023/07/19 04:03:48;;;;;;;9.48;4.60;;;25.70;57.30;;;;;;6167919;27;83522;-72
2023/07/19 04:06:49;;;;;;;10.52;4.82;;;25.70;57.40;;;;;;6179696;27;82164;-68
2023/07/19 04:09:49;;;;;;;6.28;4.47;;;25.70;57.40;;;;;;6161891;27;83923;-69
2023/07/19 04:12:49;;;;;;;10.30;4.50;;;25.70;57.30;;;;;;6174283;27;81892;-70
2023/07/19 04:15:51;;;;;;;7.90;4.70;;;25.70;57.30;;;;;;6165844;27;82415;-68
2023/07/19 04:18:51;;;;;;;11.43;4.82;;;25.70;57.30;;;;;;6160873;27;80056;-67
2023/07/19 04:21:52;;;;;;;9.60;4.88;;;25.70;58.00;;;;;;6160994;27;80488;-68
2023/07/19 04:24:54;;;;;;;8.60;4.57;;;25.80;57.50;;;;;;6157226;27;83106;-67
2023/07/19 04:27:55;;;;;;;7.28;4.32;;;25.80;57.40;;;;;;6153953;27;83121;-67
2023/07/19 04:30:56;;;;;;;8.82;5.13;;;25.80;57.40;;;;;;6154755;27;82552;-67
2023/07/19 04:33:57;;;;;;;16.42;4.75;;;25.80;57.40;;;;;;6161321;27;83325;-64
2023/07/19 04:36:57;;;;;;;8.18;4.47;;;25.80;57.40;;;;;;6156878;27;83531;-72
2023/07/19 04:39:59;;;;;;;10.40;4.18;;;25.80;57.50;;;;;;6145699;27;82729;-69
2023/07/19 04:43:01;;;;;;;6.95;4.43;;;25.80;57.20;;;;;;6154854;27;83579;-66
2023/07/19 04:46:02;;;;;;;14.68;5.50;;;25.80;57.20;;;;;;6158584;27;87174;-66
2023/07/19 04:49:02;;;;;;;12.32;5.32;;;25.80;57.20;;;;;;6149722;27;83392;-68
2023/07/19 04:52:03;;;;;;;6.28;3.85;;;25.80;57.20;;;;;;6162107;27;82665;-69
2023/07/19 04:55:05;;;;;;;16.17;5.13;;;25.80;57.20;;;;;;6161035;27;82458;-68
2023/07/19 04:58:07;;;;;;;8.68;4.53;;;25.90;57.10;;;;;;6145990;27;83680;-67
2023/07/19 05:01:08;;;;;;;8.73;4.35;;;25.80;57.30;;;;;;6163613;27;83683;-66
2023/07/19 05:04:10;;;;;;;7.90;4.47;;;25.90;57.10;;;;;;6162220;27;83362;-68
2023/07/19 05:07:10;;;;;;;12.73;4.72;;;25.90;57.10;;;;;;6159194;27;81000;-67
2023/07/19 05:10:11;;;;;;;9.93;5.07;;;25.90;57.20;;;;;;6157041;27;82135;-66
2023/07/19 05:13:11;;;;;;;26.95;13.95;;;25.90;57.30;;;;;;6153909;27;81383;-65
2023/07/19 05:16:13;;;;;;;44.85;22.23;;;25.90;57.30;;;;;;6161282;27;83782;-66
2023/07/19 05:19:14;;;;;;;39.83;21.00;;;25.90;57.50;;;;;;6154055;27;87527;-66
2023/07/19 05:22:15;;;;;;;34.20;18.50;;;25.90;57.70;;;;;;6133596;27;86652;-66
2023/07/19 05:25:15;;;;;;;30.52;17.15;;;26.00;57.90;;;;;;6162664;27;86089;-70
2023/07/19 05:28:17;;;;;;;27.00;14.30;;;26.00;58.10;;;;;;6158827;27;84589;-57
2023/07/19 05:31:19;;;;;;;39.53;11.15;;;26.00;58.10;;;;;;6158581;27;83751;-56
2023/07/19 05:34:19;;;;;;;19.55;10.57;;;26.00;58.30;;;;;;6159518;27;83456;-54
2023/07/19 05:37:20;;;;;;;21.33;9.85;;;26.10;58.50;;;;;;6150435;27;87562;-57
2023/07/19 05:40:20;;;;;;;20.35;8.75;;;26.00;58.80;;;;;;6157719;27;84375;-56
2023/07/19 05:43:21;;;;;;;15.05;8.25;;;26.10;58.80;;;;;;6162020;27;83992;-57
2023/07/19 05:46:21;;;;;;;14.25;7.50;;;26.10;58.50;;;;;;6149464;27;80476;-58
2023/07/19 05:49:22;;;;;;;12.10;6.38;;;26.10;58.60;;;;;;6140000;27;85710;-58
2023/07/19 05:52:22;;;;;;;11.68;6.05;;;26.10;58.50;;;;;;6144146;27;82963;-54
2023/07/19 05:55:24;;;;;;;18.70;6.35;;;26.10;58.70;;;;;;6151567;27;83298;-59
2023/07/19 05:58:24;;;;;;;16.42;5.55;;;26.10;58.30;;;;;;6152188;27;81117;-58
2023/07/19 06:01:25;;;;;;;14.98;5.80;;;26.20;58.70;;;;;;6161578;27;80938;-56
2023/07/19 06:04:26;;;;;;;8.75;5.00;;;26.20;58.40;;;;;;6159117;27;83343;-71
2023/07/19 06:07:26;;;;;;;11.85;5.65;;;26.10;58.20;;;;;;6159010;27;86924;-67
2023/07/19 06:10:27;;;;;;;9.68;4.57;;;26.20;58.60;;;;;;6153603;27;83879;-67
2023/07/19 06:13:27;;;;;;;11.15;5.50;;;26.20;58.20;;;;;;6167208;27;81083;-73
2023/07/19 06:16:28;;;;;;;7.43;4.65;;;26.20;58.30;;;;;;6163535;27;81881;-67
2023/07/19 06:19:28;;;;;;;9.00;4.80;;;26.20;58.10;;;;;;6161062;27;82328;-71
2023/07/19 06:22:29;;;;;;;8.77;4.85;;;26.20;58.00;;;;;;6159818;27;81719;-72
2023/07/19 06:25:29;;;;;;;8.02;4.50;;;26.20;58.50;;;;;;6158207;27;80297;-71
2023/07/19 06:28:30;;;;;;;26.52;5.45;;;26.30;58.40;;;;;;6171460;27;80739;-72
2023/07/19 06:31:31;;;;;;;11.75;4.53;;;26.40;58.50;;;;;;6085420;27;82137;-67
2023/07/19 06:34:31;;;;;;;13.43;4.75;;;26.40;58.40;;;;;;6158299;27;81047;-70
2023/07/19 06:37:32;;;;;;;9.90;4.50;;;26.30;58.10;;;;;;6164887;27;82102;-71
2023/07/19 06:40:33;;;;;;;14.18;4.47;;;26.30;58.20;;;;;;6160443;27;80895;-55
2023/07/19 06:43:33;;;;;;;7.18;4.38;;;26.30;58.00;;;;;;6165562;27;80542;-54
2023/07/19 06:46:34;;;;;;;9.13;4.35;;;26.20;57.80;;;;;;6165488;27;80626;-54
2023/07/19 06:49:34;;;;;;;9.68;4.70;;;26.30;57.80;;;;;;6173550;27;80411;-55
2023/07/19 06:52:35;;;;;;;8.07;5.07;;;26.30;58.20;;;;;;6172670;27;80338;-54
2023/07/19 06:55:35;;;;;;;9.40;4.38;;;26.40;58.00;;;;;;6163009;27;80790;-56
2023/07/19 06:58:36;;;;;;;7.47;4.63;;;26.40;58.10;;;;;;6168177;27;80467;-57
2023/07/19 07:01:36;;;;;;;13.10;4.80;;;26.30;58.70;;;;;;6167574;27;81040;-55
2023/07/19 07:04:37;;;;;;;16.85;4.85;;;26.40;58.80;;;;;;6166872;27;81893;-59
2023/07/19 07:07:39;;;;;;;9.38;5.10;;;26.40;59.00;;;;;;6158707;27;83754;-58
2023/07/19 07:10:40;;;;;;;106.13;55.95;;;26.50;59.00;;;;;;6161209;27;81189;-57
2023/07/19 07:13:40;;;;;;;244.60;136.32;;;26.50;59.10;;;;;;6154006;27;83519;-58
2023/07/19 07:16:41;;;;;;;97.28;50.15;;;26.50;59.20;;;;;;6140202;27;85489;-58
2023/07/19 07:19:41;;;;;;;253.98;135.73;;;26.50;59.20;;;;;;6146796;27;85316;-58
2023/07/19 07:22:42;;;;;;;113.57;62.20;;;26.60;59.00;;;;;;6161057;27;85823;-56
2023/07/19 07:25:42;;;;;;;290.42;150.77;;;26.60;58.90;;;;;;6153953;27;88514;-58
2023/07/19 07:28:43;;;;;;;223.68;114.82;;;26.60;59.10;;;;;;6154650;27;85972;-56
2023/07/19 07:31:43;;;;;;;155.63;80.63;;;26.60;59.00;;;;;;6140945;27;86963;-57
2023/07/19 07:34:44;;;;;;;89.78;43.97;;;26.60;59.00;;;;;;6157496;27;85618;-57
2023/07/19 07:37:44;;;;;;;42.92;21.38;;;26.60;58.80;;;;;;6158972;27;83787;-70
2023/07/19 07:40:45;;;;;;;44.17;21.17;;;26.60;58.70;;;;;;6161573;27;88465;-71
2023/07/19 07:43:45;;;;;;;38.22;20.77;;;26.60;58.70;;;;;;6166941;27;84395;-70
2023/07/19 07:46:46;;;;;;;25.50;12.82;;;26.60;58.80;;;;;;6150091;27;83464;-70
2023/07/19 07:49:47;;;;;;;24.73;10.95;;;26.60;58.80;;;;;;6154359;27;86122;-62
2023/07/19 07:52:48;;;;;;;14.40;8.60;;;26.60;58.70;;;;;;6150828;27;85685;-66
2023/07/19 07:55:49;;;;;;;18.65;7.95;;;26.60;58.90;;;;;;6155435;27;82962;-55
2023/07/19 07:58:49;;;;;;;15.98;6.50;;;26.60;58.70;;;;;;6150684;27;80469;-56
2023/07/19 08:01:50;;;;;;;11.65;5.38;;;26.60;58.60;;;;;;6155867;27;81453;-57
2023/07/19 08:04:52;;;;;;;9.70;5.85;;;26.60;58.30;;;;;;6146601;27;81379;-57
2023/07/19 08:07:52;;;;;;;10.45;4.57;;;26.60;58.40;;;;;;6147279;27;82625;-56
2023/07/19 08:10:53;;;;;;;13.35;5.68;;;26.60;58.20;;;;;;6157015;27;81061;-56
2023/07/19 08:13:53;;;;;;;10.88;4.97;;;26.60;58.40;;;;;;6154963;27;81071;-57
2023/07/19 08:16:54;;;;;;;19.05;5.93;;;26.60;59.10;;;;;;6159365;27;80455;-56
2023/07/19 08:19:54;;;;;;;12.25;5.55;;;26.60;58.80;;;;;;6154540;27;80486;-56
2023/07/19 08:22:55;;;;;;;7.15;4.25;;;26.60;58.90;;;;;;6172161;27;87434;-56
2023/07/19 08:25:56;;;;;;;16.05;4.72;;;26.70;58.60;;;;;;6161605;27;80887;-57
2023/07/19 08:28:56;;;;;;;9.00;4.63;;;26.70;58.60;;;;;;6175426;27;80600;-57
2023/07/19 08:31:57;;;;;;;10.70;4.72;;;26.80;58.50;;;;;;6164846;27;81261;-69
2023/07/19 08:34:57;;;;;;;12.18;4.72;;;26.80;58.30;;;;;;6178578;27;80915;-70
2023/07/19 08:37:58;;;;;;;18.30;5.72;;;26.80;58.60;;;;;;6161716;27;83436;-64
2023/07/19 08:40:59;;;;;;;14.10;5.85;;;26.80;58.80;;;;;;6158641;27;82324;-73
2023/07/19 08:44:00;;;;;;;14.32;4.43;;;26.80;59.20;;;;;;6162479;27;81449;-71
2023/07/19 08:47:02;;;;;;;10.60;4.97;;;26.80;59.30;;;;;;6163684;27;84194;-71
2023/07/19 08:50:04;;;;;;;11.70;4.82;;;26.90;59.30;;;;;;6167538;27;80734;-71
2023/07/19 08:53:05;;;;;;;10.50;5.22;;;26.90;59.20;;;;;;6172658;27;80291;-68
2023/07/19 08:56:06;;;;;;;11.50;4.85;;;26.90;59.10;;;;;;6166833;27;80013;-74
2023/07/19 08:59:06;;;;;;;13.65;5.43;;;27.00;59.30;;;;;;6179689;27;80624;-72
2023/07/19 09:02:07;;;;;;;6.97;4.38;;;27.00;59.20;;;;;;6161908;27;81681;-64
2023/07/19 09:05:07;;;;;;;7.35;4.75;;;27.00;59.10;;;;;;6153218;27;81258;-64
2023/07/19 09:08:09;;;;;;;8.35;4.55;;;27.10;58.10;;;;;;6154225;27;82387;-62
2023/07/19 09:11:09;;;;;;;11.77;5.45;;;27.10;57.60;;;;;;6161049;27;80631;-67
2023/07/19 09:14:10;;;;;;;9.32;5.32;;;27.10;56.80;;;;;;6158663;27;80583;-66
2023/07/19 09:17:10;;;;;;;23.23;9.07;;;27.10;56.20;;;;;;6158313;27;84997;-64
2023/07/19 09:20:11;;;;;;;19.27;7.18;;;27.10;57.30;;;;;;6159541;27;80458;-67
2023/07/19 09:23:12;;;;;;;19.85;6.15;;;27.20;57.10;;;;;;6153033;27;81934;-67
2023/07/19 09:26:12;;;;;;;17.50;6.88;;;27.20;56.70;;;;;;6159841;27;83788;-57
2023/07/19 09:29:13;;;;;;;21.73;8.45;;;27.20;56.40;;;;;;6162063;27;80376;-56
2023/07/19 09:32:13;;;;;;;21.60;7.38;;;27.30;57.60;;;;;;6148278;27;85454;-57
2023/07/19 09:35:14;;;;;;;16.02;6.75;;;27.30;56.50;;;;;;6154682;27;81493;-57
2023/07/19 09:38:14;;;;;;;13.60;6.18;;;27.30;56.30;;;;;;6156438;27;80974;-57
2023/07/19 09:41:15;;;;;;;13.73;6.07;;;27.30;55.90;;;;;;6157347;27;80504;-56
2023/07/19 09:44:16;;;;;;;11.07;6.22;;;27.30;57.40;;;;;;6156927;27;82924;-64
2023/07/19 09:47:17;;;;;;;14.50;6.25;;;27.30;59.10;;;;;;6161305;27;82905;-66
2023/07/19 09:50:17;;;;;;;14.45;5.85;;;27.40;57.70;;;;;;6155214;27;81743;-70
2023/07/19 09:53:18;;;;;;;14.70;5.65;;;27.40;58.10;;;;;;6159145;27;81012;-67
2023/07/19 09:56:18;;;;;;;8.52;4.28;;;27.50;57.20;;;;;;6150520;27;80505;-64
2023/07/19 09:59:19;;;;;;;11.52;5.07;;;27.50;56.10;;;;;;6148373;27;84080;-63
2023/07/19 10:02:19;;;;;;;9.20;4.78;;;27.60;56.30;;;;;;6155827;27;80309;-68
2023/07/19 10:05:20;;;;;;;12.25;5.32;;;27.60;56.10;;;;;;6158799;27;85030;-58
2023/07/19 10:08:20;;;;;;;11.82;4.53;;;27.60;56.20;;;;;;6151205;27;83230;-58
2023/07/19 10:11:21;;;;;;;7.40;4.40;;;27.60;55.90;;;;;;6163523;27;80772;-56
2023/07/19 10:14:26;;;;;;;6.97;4.45;;;27.70;55.10;;;;;;6155304;27;81963;-55
2023/07/19 10:17:26;;;;;;;6.97;3.77;;;27.70;54.00;;;;;;6158643;27;80599;-58
2023/07/19 10:20:27;;;;;;;12.55;4.30;;;27.80;53.40;;;;;;6161033;27;80576;-57
2023/07/19 10:23:30;;;;;;;11.15;4.53;;;27.80;53.30;;;;;;6160157;27;81775;-67
2023/07/19 10:26:31;;;;;;;11.40;4.50;;;27.80;52.50;;;;;;6166193;27;87085;-68
2023/07/19 10:29:31;;;;;;;11.18;4.40;;;27.90;53.10;;;;;;6163940;27;80660;-65
2023/07/19 10:32:32;;;;;;;11.57;4.07;;;27.90;53.00;;;;;;6159912;27;80432;-66
2023/07/19 10:35:32;;;;;;;14.18;4.28;;;27.90;52.70;;;;;;6162537;27;80919;-66
2023/07/19 10:38:32;;;;;;;11.30;5.15;;;28.00;52.90;;;;;;6156120;27;82260;-68
2023/07/19 10:41:33;;;;;;;10.98;4.57;;;28.00;53.00;;;;;;6160850;27;80540;-57
2023/07/19 10:44:34;;;;;;;6.53;4.00;;;28.10;53.30;;;;;;6162162;27;80811;-57
2023/07/19 10:47:34;;;;;;;13.60;4.78;;;28.10;53.40;;;;;;6157292;27;80452;-59
2023/07/19 10:50:34;;;;;;;9.18;4.22;;;28.10;53.90;;;;;;6157300;27;80827;-59
2023/07/19 10:53:35;;;;;;;6.38;4.30;;;28.10;54.00;;;;;;6155829;27;80695;-57
2023/07/19 10:56:37;;;;;;;6.03;3.72;;;28.10;53.90;;;;;;6155695;27;82738;-58
2023/07/19 10:59:37;;;;;;;10.65;4.53;;;28.00;53.40;;;;;;6159501;27;82561;-63
2023/07/19 11:02:38;;;;;;;7.40;4.57;;;28.00;53.60;;;;;;6161937;27;83785;-67
2023/07/19 11:05:39;;;;;;;6.80;3.85;;;28.00;53.00;;;;;;6149292;27;80383;-68
2023/07/19 11:08:39;;;;;;;8.73;4.00;;;28.00;52.40;;;;;;6147599;27;81415;-69
2023/07/19 11:11:40;;;;;;;11.07;4.35;;;28.00;53.00;;;;;;6151399;27;83008;-71
2023/07/19 11:14:41;;;;;;;11.60;4.47;;;27.90;52.90;;;;;;6162383;27;87952;-68
2023/07/19 11:17:41;;;;;;;15.98;4.70;;;27.90;52.40;;;;;;6152161;27;85245;-69
2023/07/19 11:20:42;;;;;;;9.90;4.70;;;27.90;51.70;;;;;;6159743;27;82549;-64
2023/07/19 11:23:44;;;;;;;9.25;4.70;;;27.80;51.50;;;;;;6186198;27;81373;-66
2023/07/19 11:26:44;;;;;;;14.07;4.90;;;27.80;51.80;;;;;;6167018;27;81247;-66
2023/07/19 11:29:46;;;;;;;7.10;4.57;;;27.80;52.30;;;;;;6164194;27;80182;-63
2023/07/19 11:32:47;;;;;;;8.07;4.97;;;27.90;52.70;;;;;;6161811;27;80825;-72
2023/07/19 11:35:47;;;;;;;10.20;4.95;;;27.80;52.90;;;;;;6156665;27;80482;-59
2023/07/19 11:38:47;;;;;;;11.18;5.35;;;27.80;52.90;;;;;;6157046;27;80952;-58
2023/07/19 11:41:51;;;;;;;12.98;4.80;;;27.90;53.20;;;;;;6168560;27;81514;-57
2023/07/19 11:44:51;;;;;;;10.93;4.47;;;27.90;53.30;;;;;;6170800;27;81700;-55
2023/07/19 11:47:52;;;;;;;11.55;5.60;;;27.90;52.80;;;;;;6168652;27;80526;-57
2023/07/19 11:50:52;;;;;;;9.32;4.50;;;27.90;53.10;;;;;;6161391;27;83602;-58
2023/07/19 11:53:53;;;;;;;12.55;4.85;;;27.90;52.50;;;;;;6155566;27;82762;-65
2023/07/19 11:56:53;;;;;;;6.43;3.92;;;27.80;51.90;;;;;;6162840;27;82436;-65
2023/07/19 11:59:54;;;;;;;6.75;4.75;;;27.80;52.10;;;;;;6160938;27;81508;-63
2023/07/19 12:02:55;;;;;;;10.85;4.70;;;27.80;51.70;;;;;;6142192;27;83357;-66
2023/07/19 12:05:55;;;;;;;11.65;4.85;;;27.80;51.10;;;;;;6181983;27;81354;-67
2023/07/19 12:08:56;;;;;;;8.50;4.90;;;27.80;51.00;;;;;;6174607;27;80268;-68
2023/07/19 12:11:57;;;;;;;9.02;4.30;;;27.80;51.40;;;;;;6179963;27;81011;-68
2023/07/19 12:14:58;;;;;;;7.57;4.68;;;27.80;51.40;;;;;;6173834;27;81025;-69
2023/07/19 12:17:59;;;;;;;9.27;4.20;;;27.90;51.20;;;;;;6153050;27;97758;-69
2023/07/19 12:21:00;;;;;;;7.75;4.35;;;27.80;51.20;;;;;;6165225;27;80716;-70
2023/07/19 12:24:00;;;;;;;19.88;4.30;;;27.90;51.50;;;;;;6165750;27;80663;-67
2023/07/19 12:27:01;;;;;;;8.98;4.65;;;28.00;51.50;;;;;;6173759;27;81133;-71
2023/07/19 12:30:01;;;;;;;8.23;4.47;;;28.00;51.50;;;;;;6167809;27;81600;-57
2023/07/19 12:33:02;;;;;;;12.15;4.68;;;28.00;52.00;;;;;;6166597;27;82578;-54
2023/07/19 12:36:02;;;;;;;9.07;4.40;;;28.00;52.30;;;;;;6159572;27;80616;-57
2023/07/19 12:39:04;;;;;;;11.70;5.20;;;28.00;52.20;;;;;;6170730;27;80969;-56
2023/07/19 12:42:05;;;;;;;8.88;4.45;;;28.00;51.90;;;;;;6169815;27;83877;-58
2023/07/19 12:45:09;;;;;;;11.30;4.78;;;27.90;51.60;;;;;;6172080;27;80323;-55
2023/07/19 12:48:10;;;;;;;6.85;4.68;;;28.00;51.70;;;;;;6168955;27;80594;-65
2023/07/19 12:51:10;;;;;;;6.15;4.75;;;27.90;51.60;;;;;;6172356;27;80295;-66
2023/07/19 12:54:11;;;;;;;8.20;4.43;;;27.90;51.50;;;;;;6165896;27;80416;-64
2023/07/19 12:57:12;;;;;;;7.53;4.53;;;28.00;51.80;;;;;;6166060;27;80391;-63
2023/07/19 13:00:13;;;;;;;10.73;4.50;;;27.90;51.40;;;;;;6166206;27;80589;-63
2023/07/19 13:03:13;;;;;;;7.32;4.13;;;28.00;51.90;;;;;;6171214;27;83635;-64
2023/07/19 13:06:16;;;;;;;9.98;4.75;;;28.00;52.30;;;;;;6164210;27;80739;-66
2023/07/19 13:09:17;;;;;;;6.18;4.10;;;28.00;52.10;;;;;;6166469;27;80943;-64
2023/07/19 13:12:17;;;;;;;12.32;4.97;;;28.00;52.20;;;;;;6166446;27;80705;-64
2023/07/19 13:15:18;;;;;;;13.05;4.78;;;28.00;52.30;;;;;;6171437;27;81104;-65
2023/07/19 13:18:18;;;;;;;9.05;4.88;;;28.00;52.20;;;;;;6171415;27;81081;-63
2023/07/19 13:21:19;;;;;;;12.88;5.13;;;28.00;51.80;;;;;;6178331;27;80607;-61
2023/07/19 13:24:19;;;;;;;6.13;4.57;;;27.90;51.60;;;;;;6174745;27;80660;-62
2023/07/19 13:27:20;;;;;;;10.30;4.28;;;28.00;51.40;;;;;;6168008;27;83142;-63
2023/07/19 13:30:20;;;;;;;12.65;4.65;;;28.00;51.50;;;;;;6183629;27;80843;-64
2023/07/19 13:33:21;;;;;;;9.27;4.53;;;28.00;51.50;;;;;;6174652;27;80758;-62
2023/07/19 13:36:21;;;;;;;10.80;4.63;;;28.00;50.20;;;;;;6182790;27;80626;-67
2023/07/19 13:39:22;;;;;;;8.88;4.70;;;28.00;50.90;;;;;;6172156;27;81757;-67
2023/07/19 13:42:23;;;;;;;8.98;4.80;;;28.00;50.60;;;;;;6169381;27;80507;-69
2023/07/19 13:45:23;;;;;;;7.55;4.57;;;27.90;50.40;;;;;;6163067;27;81542;-55
2023/07/19 13:48:24;;;;;;;11.45;4.45;;;28.00;50.00;;;;;;6173252;27;80584;-59
2023/07/19 13:51:24;;;;;;;8.00;4.40;;;28.00;49.90;;;;;;6185639;27;80720;-59
2023/07/19 13:54:25;;;;;;;11.07;4.47;;;27.90;49.40;;;;;;6152956;27;81244;-59
2023/07/19 13:57:27;;;;;;;8.15;4.07;;;27.90;48.90;;;;;;6168804;27;80448;-58
2023/07/19 14:00:27;;;;;;;6.78;4.40;;;28.00;48.60;;;;;;6173364;27;80402;-59
2023/07/19 14:03:29;;;;;;;7.22;3.72;;;28.00;47.90;;;;;;6175545;27;80440;-68
2023/07/19 14:06:29;;;;;;;10.70;4.05;;;28.00;48.20;;;;;;6174928;27;80905;-64
2023/07/19 14:09:30;;;;;;;7.53;4.00;;;27.90;48.80;;;;;;6177534;27;80392;-69
2023/07/19 14:12:30;;;;;;;10.10;4.60;;;27.90;48.20;;;;;;6172450;27;81171;-65
2023/07/19 14:15:31;;;;;;;11.77;4.35;;;27.90;47.60;;;;;;6171791;27;80572;-64
2023/07/19 14:18:31;;;;;;;6.82;4.10;;;27.90;48.20;;;;;;6170960;27;81056;-64
2023/07/19 14:21:32;;;;;;;7.22;4.13;;;27.90;47.70;;;;;;6174930;27;82534;-62
2023/07/19 14:24:32;;;;;;;11.02;3.90;;;27.90;47.60;;;;;;6176739;27;81634;-64
2023/07/19 14:27:33;;;;;;;9.25;4.53;;;27.90;47.70;;;;;;6180571;27;82669;-67
2023/07/19 14:30:34;;;;;;;13.88;4.70;;;27.90;48.20;;;;;;6170507;27;81315;-63
2023/07/19 14:33:34;;;;;;;7.35;4.07;;;27.90;47.80;;;;;;6174517;27;80971;-65
2023/07/19 14:36:35;;;;;;;9.68;4.15;;;27.90;47.80;;;;;;6167318;27;81629;-62
2023/07/19 14:39:35;;;;;;;11.18;4.50;;;27.90;47.80;;;;;;6162426;27;81410;-67
2023/07/19 14:42:36;;;;;;;8.10;4.25;;;27.90;47.40;;;;;;6151143;27;80405;-67
2023/07/19 14:45:39;;;;;;;9.20;4.10;;;28.00;48.20;;;;;;6162599;27;80180;-69
2023/07/19 14:48:39;;;;;;;12.95;3.83;;;28.00;47.90;;;;;;6167429;27;80480;-68
2023/07/19 14:51:40;;;;;;;8.13;4.10;;;27.90;47.90;;;;;;6159685;27;81194;-68
2023/07/19 14:54:40;;;;;;;15.23;4.22;;;27.90;48.10;;;;;;6148902;27;80018;-67
2023/07/19 14:57:41;;;;;;;5.88;4.15;;;27.90;48.50;;;;;;6166768;27;80509;-57
2023/07/19 15:00:41;;;;;;;8.48;4.30;;;27.90;48.60;;;;;;6171833;27;80435;-58
2023/07/19 15:03:42;;;;;;;8.35;4.25;;;27.90;48.80;;;;;;6169363;27;80229;-56
2023/07/19 15:06:43;;;;;;;10.05;4.72;;;27.90;49.00;;;;;;6169907;27;82020;-57
2023/07/19 15:09:44;;;;;;;9.88;4.07;;;27.90;49.50;;;;;;6173176;27;80841;-58
2023/07/19 15:12:44;;;;;;;9.32;4.68;;;28.00;49.80;;;;;;6186631;27;83518;-57
2023/07/19 15:15:45;;;;;;;9.63;4.35;;;28.00;49.60;;;;;;6174239;27;80586;-53
2023/07/19 15:18:46;;;;;;;7.18;4.32;;;28.00;49.60;;;;;;6166785;27;80528;-56
2023/07/19 15:21:46;;;;;;;5.70;4.00;;;27.90;49.30;;;;;;6163017;27;81650;-52
2023/07/19 15:24:47;;;;;;;8.70;4.03;;;27.90;48.60;;;;;;6159543;27;81148;-53
2023/07/19 15:27:47;;;;;;;9.43;4.18;;;27.90;48.30;;;;;;6164040;27;81651;-56
2023/07/19 15:30:48;;;;;;;9.13;4.20;;;27.80;48.30;;;;;;6165459;27;81953;-59
2023/07/19 15:33:48;;;;;;;10.15;3.97;;;27.80;48.90;;;;;;6166382;27;80889;-58